createdAt,value
2018-06-21T00:00:55.584Z,9.10
2018-06-21T00:03:24.159Z,11.37
2018-06-21T00:05:52.672Z,10.23
2018-06-21T00:08:21.493Z,12.17
2018-06-21T00:10:50.296Z,10.47
2018-06-21T00:13:18.728Z,10.10
2018-06-21T00:15:47.234Z,9.30
2018-06-21T00:18:16.108Z,9.83
2018-06-21T00:20:44.715Z,6.57
2018-06-21T00:23:13.342Z,7.93
2018-06-21T00:25:42.398Z,10.30
2018-06-21T00:28:11.128Z,10.53
2018-06-21T00:30:39.712Z,9.50
2018-06-21T00:33:08.019Z,10.60
2018-06-21T00:35:36.695Z,8.63
2018-06-21T00:38:05.330Z,9.13
2018-06-21T00:40:34.073Z,11.10
2018-06-21T00:43:02.967Z,10.07
2018-06-21T00:45:31.708Z,9.40
2018-06-21T00:48:00.493Z,10.53
2018-06-21T00:50:29.076Z,11.27
2018-06-21T00:52:57.890Z,10.93
2018-06-21T00:55:37.907Z,11.20
2018-06-21T00:58:06.480Z,10.13
2018-06-21T01:00:35.381Z,10.30
2018-06-21T01:03:04.120Z,9.87
2018-06-21T01:05:32.690Z,9.47
2018-06-21T01:08:01.558Z,11.10
2018-06-21T01:10:30.220Z,11.07
2018-06-21T01:12:58.789Z,10.13
2018-06-21T01:15:27.446Z,9.63
2018-06-21T01:17:55.689Z,11.17
2018-06-21T01:20:24.466Z,10.37
2018-06-21T01:22:53.085Z,10.50
2018-06-21T01:25:21.757Z,12.13
2018-06-21T01:27:50.470Z,9.90
2018-06-21T01:30:19.068Z,10.33
2018-06-21T01:32:47.736Z,8.93
2018-06-21T01:35:16.480Z,10.63
2018-06-21T01:37:45.146Z,10.67
2018-06-21T01:40:13.868Z,9.20
2018-06-21T01:42:42.364Z,11.80
2018-06-21T01:45:11.162Z,11.40
2018-06-21T01:47:39.571Z,10.20
2018-06-21T01:50:08.116Z,10.43
2018-06-21T01:52:36.733Z,9.90
2018-06-21T01:55:04.929Z,12.07
2018-06-21T01:57:33.460Z,11.70
2018-06-21T02:00:02.094Z,10.97
2018-06-21T02:08:16.436Z,10.20
2018-06-21T02:10:45.206Z,10.85
2018-06-21T02:13:14.144Z,10.45
2018-06-21T02:15:42.823Z,7.90
2018-06-21T02:18:11.714Z,8.70
2018-06-21T02:20:40.851Z,7.80
2018-06-21T02:23:09.948Z,10.10
2018-06-21T02:25:39.288Z,10.05
2018-06-21T02:28:07.844Z,8.30
2018-06-21T02:30:36.495Z,9.75
2018-06-21T02:33:05.390Z,11.77
2018-06-21T02:35:34.081Z,13.07
2018-06-21T02:38:03.610Z,12.97
2018-06-21T02:40:32.240Z,12.17
2018-06-21T02:43:02.353Z,14.20
2018-06-21T02:45:31.433Z,12.67
2018-06-21T02:48:00.444Z,11.30
2018-06-21T02:50:29.476Z,11.67
2018-06-21T02:52:58.403Z,12.43
2018-06-21T02:55:27.144Z,10.80
2018-06-21T02:57:55.935Z,9.90
2018-06-21T03:00:24.715Z,12.53
2018-06-21T03:02:53.439Z,12.30
2018-06-21T03:05:22.383Z,10.33
2018-06-21T03:07:51.166Z,13.00
2018-06-21T03:10:19.980Z,16.10
2018-06-21T03:17:45.355Z,13.70
2018-06-21T03:20:13.956Z,14.70
2018-06-21T03:22:42.752Z,11.20
2018-06-21T03:30:08.796Z,11.70
2018-06-21T03:32:37.570Z,10.75
2018-06-21T03:35:06.359Z,14.70
2018-06-21T03:37:35.043Z,15.87
2018-06-21T03:40:03.834Z,12.23
2018-06-21T03:42:32.741Z,13.90
2018-06-21T03:45:00.985Z,14.80
2018-06-21T03:52:26.011Z,11.60
2018-06-21T03:54:55.078Z,10.30
2018-06-21T03:57:23.714Z,11.90
2018-06-21T04:04:48.489Z,11.10
2018-06-21T04:07:17.467Z,10.90
2018-06-21T04:12:14.748Z,10.70
2018-06-21T04:14:44.299Z,10.85
2018-06-21T04:17:13.104Z,11.43
2018-06-21T04:19:41.765Z,10.00
2018-06-21T04:22:10.553Z,11.20
2018-06-21T04:24:40.314Z,10.30
2018-06-21T04:27:08.928Z,10.40
2018-06-21T04:29:37.550Z,10.20
2018-06-21T04:32:06.454Z,9.60
2018-06-21T04:34:35.118Z,10.80
2018-06-21T04:37:03.789Z,9.37
2018-06-21T04:39:32.521Z,9.90
2018-06-21T04:42:01.380Z,8.77
2018-06-21T04:44:30.045Z,9.10
2018-06-21T04:46:59.003Z,8.50
2018-06-21T04:49:28.591Z,8.07
2018-06-21T04:51:57.435Z,8.33
2018-06-21T04:54:26.286Z,8.47
2018-06-21T04:56:55.224Z,7.50
2018-06-21T04:59:24.027Z,7.50
2018-06-21T05:01:52.957Z,9.53
2018-06-21T05:04:21.834Z,7.97
2018-06-21T05:06:51.239Z,7.57
2018-06-21T05:09:21.661Z,7.37
2018-06-21T05:11:51.302Z,7.53
2018-06-21T05:14:21.060Z,6.67
2018-06-21T05:16:49.536Z,6.47
2018-06-21T05:19:18.180Z,6.47
2018-06-21T05:21:46.928Z,7.40
2018-06-21T05:24:15.923Z,6.77
2018-06-21T05:26:44.446Z,5.87
2018-06-21T05:29:14.368Z,6.57
2018-06-21T05:31:43.089Z,5.97
2018-06-21T05:34:11.861Z,5.93
2018-06-21T05:36:40.691Z,6.27
2018-06-21T05:39:10.576Z,5.97
2018-06-21T05:41:39.483Z,6.03
2018-06-21T05:44:08.290Z,6.00
2018-06-21T05:46:37.011Z,5.10
2018-06-21T05:49:05.658Z,5.60
2018-06-21T05:51:34.599Z,5.03
2018-06-21T05:54:03.168Z,5.40
2018-06-21T05:56:31.882Z,6.10
2018-06-21T05:59:00.571Z,6.00
2018-06-21T06:01:29.171Z,5.20
2018-06-21T06:03:57.352Z,5.27
2018-06-21T06:06:26.027Z,5.27
2018-06-21T06:08:54.569Z,4.47
2018-06-21T06:11:23.352Z,5.47
2018-06-21T06:13:51.980Z,5.00
2018-06-21T06:16:20.548Z,4.90
2018-06-21T06:18:49.145Z,5.47
2018-06-21T06:21:18.197Z,5.40
2018-06-21T06:23:47.018Z,5.00
2018-06-21T06:26:15.716Z,4.97
2018-06-21T06:28:44.317Z,4.90
2018-06-21T06:31:12.929Z,4.80
2018-06-21T06:33:41.641Z,5.10
2018-06-21T06:36:10.338Z,4.67
2018-06-21T06:38:38.895Z,5.07
2018-06-21T06:41:07.490Z,4.40
2018-06-21T06:43:36.289Z,4.40
2018-06-21T06:46:05.071Z,4.60
2018-06-21T06:48:33.969Z,4.67
2018-06-21T06:51:02.464Z,5.03
2018-06-21T06:53:31.895Z,5.40
2018-06-21T06:56:01.328Z,4.60
2018-06-21T06:58:29.882Z,4.80
2018-06-21T07:00:58.947Z,5.10
2018-06-21T07:03:31.347Z,4.50
2018-06-21T07:05:59.945Z,5.00
2018-06-21T07:08:28.441Z,5.47
2018-06-21T07:10:57.142Z,4.73
2018-06-21T07:13:25.689Z,4.80
2018-06-21T07:15:54.548Z,5.03
2018-06-21T07:18:23.438Z,4.90
2018-06-21T07:20:52.418Z,5.30
2018-06-21T07:23:21.282Z,4.17
2018-06-21T07:25:49.666Z,5.00
2018-06-21T07:28:18.070Z,5.40
2018-06-21T07:30:46.952Z,4.83
2018-06-21T07:33:15.488Z,5.27
2018-06-21T07:35:44.256Z,4.23
2018-06-21T07:38:13.242Z,4.70
2018-06-21T07:40:41.601Z,4.90
2018-06-21T07:43:09.869Z,4.97
2018-06-21T07:45:38.153Z,4.87
2018-06-21T07:48:06.383Z,5.00
2018-06-21T07:50:35.293Z,4.53
2018-06-21T07:53:03.925Z,5.50
2018-06-21T07:55:32.527Z,4.73
2018-06-21T07:58:00.945Z,4.97
2018-06-21T08:00:29.894Z,4.83
2018-06-21T08:02:58.449Z,5.07
2018-06-21T08:05:26.609Z,4.83
2018-06-21T08:07:55.447Z,6.73
2018-06-21T08:10:24.040Z,5.13
2018-06-21T08:12:53.021Z,7.33
2018-06-21T08:15:21.499Z,5.20
2018-06-21T08:17:50.106Z,4.37
2018-06-21T08:20:18.859Z,4.10
2018-06-21T08:22:47.352Z,3.87
2018-06-21T08:25:16.058Z,3.80
2018-06-21T08:27:44.784Z,4.10
2018-06-21T08:30:13.545Z,4.30
2018-06-21T08:32:42.989Z,5.67
2018-06-21T08:35:11.562Z,4.00
2018-06-21T08:37:40.625Z,4.30
2018-06-21T08:40:09.238Z,3.63
2018-06-21T08:42:38.202Z,3.90
2018-06-21T08:45:07.066Z,4.83
2018-06-21T08:47:35.700Z,4.50
2018-06-21T08:50:04.445Z,4.00
2018-06-21T08:52:32.982Z,4.87
2018-06-21T08:55:01.946Z,5.80
2018-06-21T08:57:30.642Z,4.60
2018-06-21T08:59:59.381Z,5.00
2018-06-21T09:02:28.123Z,5.20
2018-06-21T09:04:56.656Z,5.10
2018-06-21T09:07:25.095Z,4.33
2018-06-21T09:09:53.673Z,4.03
2018-06-21T09:12:22.286Z,4.90
2018-06-21T09:14:51.260Z,4.60
2018-06-21T09:17:19.842Z,5.00
2018-06-21T09:19:48.440Z,4.13
2018-06-21T09:22:17.008Z,5.43
2018-06-21T09:24:45.524Z,4.37
2018-06-21T09:27:14.130Z,4.37
2018-06-21T09:29:42.655Z,5.50
2018-06-21T09:32:11.156Z,4.07
2018-06-21T09:34:39.705Z,8.23
2018-06-21T09:37:08.152Z,5.93
2018-06-21T09:39:41.794Z,5.33
2018-06-21T09:42:15.617Z,4.80
2018-06-21T09:44:49.364Z,4.53
2018-06-21T09:47:23.147Z,5.70
2018-06-21T09:49:51.796Z,5.40
2018-06-21T09:52:20.420Z,3.60
2018-06-21T09:54:49.433Z,4.10
2018-06-21T09:57:18.107Z,4.10
2018-06-21T09:59:46.773Z,4.10
2018-06-21T10:02:15.513Z,3.57
2018-06-21T10:04:43.826Z,3.50
2018-06-21T10:07:12.538Z,4.20
2018-06-21T10:09:40.883Z,3.83
2018-06-21T10:12:09.589Z,6.70
2018-06-21T10:14:38.144Z,3.57
2018-06-21T10:17:08.863Z,3.10
2018-06-21T10:19:38.463Z,3.70
2018-06-21T10:22:07.564Z,2.97
2018-06-21T10:24:36.209Z,4.10
2018-06-21T10:27:04.982Z,2.90
2018-06-21T10:29:34.257Z,2.73
2018-06-21T10:32:02.863Z,4.10
2018-06-21T10:34:31.517Z,4.40
2018-06-21T10:36:59.811Z,5.00
2018-06-21T10:39:28.416Z,4.80
2018-06-21T10:41:57.275Z,4.27
2018-06-21T10:44:26.059Z,3.40
2018-06-21T10:46:55.097Z,3.17
2018-06-21T10:49:23.626Z,4.57
2018-06-21T10:51:52.215Z,3.80
2018-06-21T10:54:20.704Z,3.20
2018-06-21T10:56:49.611Z,3.90
2018-06-21T10:59:18.199Z,2.90
2018-06-21T11:01:47.099Z,3.47
2018-06-21T11:04:16.089Z,6.70
2018-06-21T11:06:44.377Z,4.73
2018-06-21T11:09:13.038Z,4.13
2018-06-21T11:11:41.318Z,4.07
2018-06-21T11:14:09.924Z,6.00
2018-06-21T11:16:38.574Z,4.63
2018-06-21T11:19:07.792Z,4.37
2018-06-21T11:21:36.725Z,3.73
2018-06-21T11:24:05.791Z,4.40
2018-06-21T11:26:34.313Z,6.53
2018-06-21T11:29:03.206Z,6.00
2018-06-21T11:31:32.102Z,6.53
2018-06-21T11:34:01.633Z,4.27
2018-06-21T11:36:30.447Z,4.27
2018-06-21T11:39:00.331Z,3.67
2018-06-21T11:41:29.800Z,4.20
2018-06-21T11:43:58.451Z,3.70
2018-06-21T11:46:26.644Z,3.20
2018-06-21T11:48:56.079Z,4.87
2018-06-21T11:51:24.801Z,4.23
2018-06-21T11:53:53.626Z,3.80
2018-06-21T11:56:21.931Z,3.30
2018-06-21T11:58:50.628Z,3.30
2018-06-21T12:01:19.645Z,5.10
2018-06-21T12:03:48.477Z,4.97
2018-06-21T12:06:16.797Z,4.53
2018-06-21T12:08:46.117Z,6.30
2018-06-21T12:11:16.168Z,4.80
2018-06-21T12:13:44.325Z,5.10
2018-06-21T12:16:13.025Z,4.43
2018-06-21T12:18:41.670Z,4.27
2018-06-21T12:21:10.385Z,4.60
2018-06-21T12:23:39.159Z,3.87
2018-06-21T12:26:07.947Z,4.40
2018-06-21T12:28:36.552Z,4.90
2018-06-21T12:31:05.350Z,5.70
2018-06-21T12:33:34.299Z,5.53
2018-06-21T12:36:03.023Z,4.77
2018-06-21T12:38:32.522Z,5.17
2018-06-21T12:41:01.625Z,3.93
2018-06-21T12:43:31.393Z,4.50
2018-06-21T12:46:00.366Z,3.37
2018-06-21T12:48:29.410Z,6.33
2018-06-21T12:50:58.428Z,4.07
2018-06-21T12:53:27.592Z,4.00
2018-06-21T12:55:56.410Z,3.77
2018-06-21T12:58:25.076Z,3.20
2018-06-21T13:00:53.860Z,3.50
2018-06-21T13:03:23.071Z,3.03
2018-06-21T13:05:51.778Z,3.30
2018-06-21T13:08:32.225Z,3.40
2018-06-21T13:11:12.753Z,3.67
2018-06-21T13:13:41.612Z,2.40
2018-06-21T13:16:10.327Z,2.90
2018-06-21T13:18:39.164Z,2.23
2018-06-21T13:21:07.674Z,2.77
2018-06-21T13:23:36.404Z,2.70
2018-06-21T13:26:05.174Z,2.80
2018-06-21T13:28:33.994Z,3.67
2018-06-21T13:31:02.880Z,2.07
2018-06-21T13:33:31.861Z,2.53
2018-06-21T13:36:00.859Z,2.30
2018-06-21T13:38:29.793Z,2.50
2018-06-21T13:41:00.268Z,2.37
2018-06-21T13:43:29.115Z,3.30
2018-06-21T13:45:57.879Z,2.37
2018-06-21T13:48:26.934Z,2.10
2018-06-21T13:50:55.902Z,3.23
2018-06-21T13:53:24.500Z,4.20
2018-06-21T13:55:53.808Z,3.03
2018-06-21T13:58:23.778Z,4.30
2018-06-21T14:00:52.607Z,3.90
2018-06-21T14:03:21.619Z,3.60
2018-06-21T14:05:52.141Z,3.90
2018-06-21T14:08:20.922Z,4.47
2018-06-21T14:10:49.587Z,3.87
2018-06-21T14:13:18.449Z,4.17
2018-06-21T14:15:47.275Z,3.97
2018-06-21T14:18:15.868Z,3.53
2018-06-21T14:20:44.603Z,3.70
2018-06-21T14:23:13.259Z,3.27
2018-06-21T14:25:42.175Z,3.47
2018-06-21T14:28:11.163Z,3.40
2018-06-21T14:30:39.860Z,4.13
2018-06-21T14:33:09.266Z,4.00
2018-06-21T14:35:39.516Z,4.30
2018-06-21T14:38:08.150Z,4.37
2018-06-21T14:40:36.854Z,6.87
2018-06-21T14:43:06.155Z,4.53
2018-06-21T14:45:34.880Z,4.33
2018-06-21T14:48:03.907Z,4.70
2018-06-21T14:50:32.715Z,4.87
2018-06-21T14:53:01.527Z,4.70
2018-06-21T14:55:30.396Z,4.20
2018-06-21T14:57:59.317Z,5.70
2018-06-21T15:00:28.145Z,6.30
2018-06-21T15:02:56.894Z,5.80
2018-06-21T15:05:25.819Z,6.37
2018-06-21T15:07:55.158Z,6.27
2018-06-21T15:10:23.759Z,6.60
2018-06-21T15:12:52.540Z,7.00
2018-06-21T15:15:21.052Z,7.17
2018-06-21T15:17:49.996Z,7.97
2018-06-21T15:20:19.829Z,8.60
2018-06-21T15:22:49.502Z,9.67
2018-06-21T15:25:18.986Z,9.30
2018-06-21T15:27:47.950Z,8.60
2018-06-21T15:30:16.731Z,7.50
2018-06-21T15:32:46.424Z,8.53
2018-06-21T15:35:15.341Z,8.37
2018-06-21T15:37:44.229Z,9.43
2018-06-21T15:40:13.156Z,7.87
2018-06-21T15:42:42.727Z,10.70
2018-06-21T15:45:13.156Z,10.57
2018-06-21T15:47:42.100Z,9.17
2018-06-21T15:50:12.538Z,10.60
2018-06-21T15:52:41.514Z,10.60
2018-06-21T15:55:10.390Z,10.47
2018-06-21T15:57:39.136Z,9.00
2018-06-21T16:00:11.455Z,10.10
2018-06-21T16:02:40.685Z,10.23
2018-06-21T16:05:11.684Z,10.70
2018-06-21T16:07:40.533Z,10.90
2018-06-21T16:10:10.790Z,9.47
2018-06-21T16:12:40.242Z,10.00
2018-06-21T16:15:09.804Z,8.60
2018-06-21T16:17:41.768Z,10.00
2018-06-21T16:20:10.260Z,9.07
2018-06-21T16:22:41.605Z,10.33
2018-06-21T16:25:11.176Z,10.30
2018-06-21T16:27:41.411Z,8.67
2018-06-21T16:30:10.387Z,7.87
2018-06-21T16:32:39.398Z,8.90
2018-06-21T16:35:09.210Z,7.87
2018-06-21T16:37:38.054Z,6.03
2018-06-21T16:40:07.285Z,7.03
2018-06-21T16:42:36.451Z,5.90
2018-06-21T16:45:08.653Z,6.27
2018-06-21T16:47:39.652Z,6.00
2018-06-21T16:50:09.917Z,5.90
2018-06-21T16:52:38.814Z,5.30
2018-06-21T16:55:08.871Z,4.63
2018-06-21T16:57:39.122Z,5.57
2018-06-21T17:00:09.081Z,5.50
2018-06-21T17:02:39.539Z,5.73
2018-06-21T17:05:08.851Z,5.40
2018-06-21T17:07:37.206Z,6.90
2018-06-21T17:10:06.316Z,10.00
2018-06-21T17:12:35.073Z,7.03
2018-06-21T17:15:04.099Z,5.80
2018-06-21T17:17:32.979Z,7.20
2018-06-21T17:20:01.809Z,6.80
2018-06-21T17:22:30.670Z,5.90
2018-06-21T17:25:00.283Z,4.70
2018-06-21T17:27:29.517Z,6.73
2018-06-21T17:30:00.288Z,6.43
2018-06-21T17:32:28.976Z,6.63
2018-06-21T17:34:57.726Z,6.13
2018-06-21T17:37:27.469Z,5.13
2018-06-21T17:39:56.374Z,5.83
2018-06-21T17:42:27.048Z,5.80
2018-06-21T17:44:57.217Z,5.00
2018-06-21T17:47:27.068Z,5.53
2018-06-21T17:49:56.737Z,5.70
2018-06-21T17:52:27.200Z,5.00
2018-06-21T17:54:57.873Z,4.33
2018-06-21T17:57:27.213Z,4.77
2018-06-21T17:59:56.530Z,5.53
2018-06-21T18:02:26.391Z,4.90
2018-06-21T18:04:55.541Z,6.03
2018-06-21T18:07:25.978Z,4.37
2018-06-21T18:09:56.723Z,3.53
2018-06-21T18:12:26.130Z,3.30
2018-06-21T18:15:15.253Z,2.60
2018-06-21T18:17:47.433Z,2.00
2018-06-21T18:20:17.365Z,2.60
2018-06-21T18:22:46.866Z,2.10
2018-06-21T18:25:19.943Z,2.33
2018-06-21T18:27:51.631Z,2.27
2018-06-21T18:30:20.458Z,2.03
2018-06-21T18:32:49.416Z,1.87
2018-06-21T18:35:18.772Z,2.00
2018-06-21T18:37:51.615Z,1.73
2018-06-21T18:40:21.572Z,1.93
2018-06-21T18:42:50.818Z,2.60
2018-06-21T18:45:20.507Z,1.40
2018-06-21T18:47:49.423Z,2.50
2018-06-21T18:50:18.600Z,2.20
2018-06-21T18:52:47.520Z,1.93
2018-06-21T18:55:17.886Z,1.90
2018-06-21T18:57:46.831Z,2.10
2018-06-21T19:00:15.808Z,1.87
2018-06-21T19:02:44.692Z,2.33
2018-06-21T19:05:14.097Z,2.00
2018-06-21T19:07:43.286Z,2.20
2018-06-21T19:10:18.022Z,2.10
2018-06-21T19:12:46.702Z,2.20
2018-06-21T19:15:16.996Z,2.03
2018-06-21T19:17:45.871Z,2.03
2018-06-21T19:20:14.636Z,1.83
2018-06-21T19:22:43.568Z,2.37
2018-06-21T19:25:21.955Z,2.63
2018-06-21T19:27:52.269Z,2.20
2018-06-21T19:30:21.108Z,2.70
2018-06-21T19:32:50.945Z,2.27
2018-06-21T19:35:20.923Z,2.83
2018-06-21T19:37:50.394Z,1.90
2018-06-21T19:40:34.985Z,2.00
2018-06-21T19:43:04.998Z,1.80
2018-06-21T19:45:34.512Z,1.93
2018-06-21T19:48:03.386Z,2.07
2018-06-21T19:50:32.754Z,2.20
2018-06-21T19:53:02.377Z,2.30
2018-06-21T19:55:32.389Z,1.87
2018-06-21T19:58:01.187Z,2.30
2018-06-21T20:00:29.984Z,2.00
2018-06-21T20:03:00.444Z,2.27
2018-06-21T20:05:30.250Z,2.27
2018-06-21T20:07:59.236Z,2.40
2018-06-21T20:10:28.147Z,1.70
2018-06-21T20:12:56.935Z,2.20
2018-06-21T20:15:25.850Z,2.30
2018-06-21T20:17:54.833Z,2.30
2018-06-21T20:20:28.564Z,2.03
2018-06-21T20:22:58.024Z,2.00
2018-06-21T20:25:27.302Z,1.87
2018-06-21T20:27:56.374Z,2.23
2018-06-21T20:30:26.183Z,1.80
2018-06-21T20:32:54.927Z,1.67
2018-06-21T20:35:23.737Z,1.93
2018-06-21T20:37:52.773Z,1.77
2018-06-21T20:40:21.606Z,1.80
2018-06-21T20:42:50.494Z,1.80
2018-06-21T20:45:19.562Z,2.73
2018-06-21T20:47:48.274Z,2.00
2018-06-21T20:50:18.629Z,2.67
2018-06-21T20:52:48.338Z,2.03
2018-06-21T20:55:16.639Z,1.53
2018-06-21T20:57:45.551Z,2.00
2018-06-21T21:00:14.652Z,2.00
2018-06-21T21:02:43.571Z,2.30
2018-06-21T21:05:12.631Z,2.00
2018-06-21T21:07:42.191Z,1.80
2018-06-21T21:10:14.384Z,2.53
2018-06-21T21:12:43.290Z,1.63
2018-06-21T21:15:13.089Z,2.33
2018-06-21T21:17:42.375Z,2.57
2018-06-21T21:20:11.683Z,2.53
2018-06-21T21:22:40.929Z,2.67
2018-06-21T21:25:09.733Z,3.00
2018-06-21T21:27:38.383Z,1.90
2018-06-21T21:30:08.657Z,2.40
2018-06-21T21:32:37.732Z,2.20
2018-06-21T21:35:06.556Z,1.90
2018-06-21T21:37:35.478Z,1.80
2018-06-21T21:40:05.489Z,2.00
2018-06-21T21:42:35.187Z,2.37
2018-06-21T21:45:03.985Z,2.43
2018-06-21T21:47:32.233Z,1.60
2018-06-21T21:50:00.902Z,2.00
2018-06-21T21:52:29.772Z,2.77
2018-06-21T21:54:58.540Z,1.97
2018-06-21T21:57:27.443Z,1.60
2018-06-21T21:59:56.329Z,1.47
2018-06-21T22:02:24.893Z,1.77
2018-06-21T22:04:53.851Z,1.47
2018-06-21T22:07:22.747Z,1.63
